Time;durP1;ratioP1;P1;durP2;ratioP2;P2;SDS_P1;SDS_P2;PMS_P1;PMS_P2;Temp;Humidity;BMP_temperature;BMP_pressure;BME280_temperature;BME280_humidity;BME280_pressure;Samples;Min_cycle;Max_cycle;Signal;HPM_P1;HPM_P2
2021/08/23 00:01:42;;;;;;;6.85;3.53;;;22.80;89.00;;;;;;5049757;28;20043;-66
2021/08/23 00:04:47;;;;;;;9.10;3.45;;;22.80;89.30;;;;;;5049674;28;20040;-67
2021/08/23 00:07:51;;;;;;;7.88;3.05;;;22.80;90.10;;;;;;5048988;28;20044;-66
2021/08/23 00:10:57;;;;;;;5.63;3.35;;;22.90;90.20;;;;;;5049552;28;20048;-67
2021/08/23 00:14:02;;;;;;;8.15;4.03;;;22.90;90.10;;;;;;5049522;28;20091;-66
2021/08/23 00:17:06;;;;;;;10.73;3.75;;;22.90;91.40;;;;;;5048536;28;20036;-67
2021/08/23 00:20:16;;;;;;;9.25;3.97;;;23.00;91.30;;;;;;5050134;28;20529;-67
2021/08/23 00:23:23;;;;;;;9.70;3.72;;;23.00;91.50;;;;;;5053391;28;20036;-68
2021/08/23 00:26:27;;;;;;;6.90;3.50;;;22.90;91.90;;;;;;5039262;28;20040;-66
2021/08/23 00:29:39;;;;;;;8.70;3.72;;;22.90;92.40;;;;;;5051451;28;20047;-66
2021/08/23 00:32:44;;;;;;;6.97;3.83;;;22.90;92.90;;;;;;5053104;28;20044;-66
2021/08/23 00:35:49;;;;;;;7.97;4.00;;;23.00;93.60;;;;;;5053012;28;20060;-66
2021/08/23 00:38:53;;;;;;;8.05;4.07;;;23.00;94.10;;;;;;5052611;28;20044;-66
2021/08/23 00:41:58;;;;;;;8.23;4.45;;;23.00;94.60;;;;;;5053103;28;20138;-68
2021/08/23 00:45:03;;;;;;;7.72;4.57;;;23.00;95.30;;;;;;5032980;28;20404;-67
2021/08/23 00:48:07;;;;;;;8.00;4.43;;;22.90;96.00;;;;;;5032341;28;20057;-67
2021/08/23 00:51:11;;;;;;;8.25;4.40;;;23.00;97.40;;;;;;5032972;28;20048;-67
2021/08/23 00:54:16;;;;;;;10.85;4.55;;;23.00;98.10;;;;;;5032179;28;20539;-66
2021/08/23 00:57:20;;;;;;;9.55;4.40;;;22.90;98.30;;;;;;5032871;28;20041;-68
2021/08/23 01:00:28;;;;;;;6.82;4.65;;;22.90;98.70;;;;;;5040731;28;20067;-68
2021/08/23 01:03:37;;;;;;;5.90;4.32;;;22.80;98.90;;;;;;5052607;28;20052;-68
2021/08/23 01:06:43;;;;;;;9.15;4.43;;;22.70;99.50;;;;;;5052690;28;20040;-67
2021/08/23 01:09:57;;;;;;;8.27;4.00;;;22.70;99.90;;;;;;5051888;28;20056;-67
2021/08/23 01:13:01;;;;;;;9.27;5.03;;;22.60;99.90;;;;;;5052782;28;20052;-67
2021/08/23 01:16:06;;;;;;;12.45;5.15;;;22.60;99.90;;;;;;5053093;28;20383;-67
2021/08/23 01:19:12;;;;;;;11.48;5.55;;;22.60;99.90;;;;;;5052224;28;20040;-67
2021/08/23 01:22:18;;;;;;;11.38;4.90;;;22.60;99.90;;;;;;5052832;28;20047;-67
2021/08/23 01:25:26;;;;;;;9.43;5.68;;;22.60;99.90;;;;;;5052574;28;20048;-67
2021/08/23 01:28:58;;;;;;;8.70;5.03;;;22.70;99.90;;;;;;5051803;28;20048;-67
2021/08/23 01:32:15;;;;;;;8.47;5.80;;;22.70;99.90;;;;;;5051280;28;20499;-67
2021/08/23 01:35:22;;;;;;;12.05;5.90;;;22.70;99.90;;;;;;5052303;28;20048;-67
2021/08/23 01:38:37;;;;;;;8.60;5.22;;;22.70;99.90;;;;;;5051396;28;20051;-66
2021/08/23 01:41:41;;;;;;;8.93;5.60;;;22.70;99.90;;;;;;5052078;28;20043;-67
2021/08/23 01:44:45;;;;;;;9.40;5.63;;;22.70;99.90;;;;;;5051076;28;20048;-67
2021/08/23 01:47:50;;;;;;;9.65;5.13;;;22.70;99.90;;;;;;5051663;28;20060;-67
2021/08/23 01:50:54;;;;;;;9.55;5.47;;;22.60;99.90;;;;;;5051649;28;20043;-67
2021/08/23 01:54:01;;;;;;;12.05;5.65;;;22.60;99.90;;;;;;5051257;28;20040;-67
2021/08/23 01:57:05;;;;;;;8.90;5.35;;;22.60;99.90;;;;;;5051693;28;20055;-67
2021/08/23 02:00:10;;;;;;;9.82;5.88;;;22.60;99.90;;;;;;5051121;28;20052;-67
2021/08/23 02:03:17;;;;;;;7.18;5.38;;;22.60;99.90;;;;;;5051844;28;20055;-67
2021/08/23 02:06:23;;;;;;;12.30;5.22;;;22.60;99.90;;;;;;5051464;28;20526;-66
2021/08/23 02:09:27;;;;;;;11.30;5.13;;;22.30;99.90;;;;;;5050575;28;20074;-66
2021/08/23 02:12:32;;;;;;;12.70;5.40;;;22.10;99.90;;;;;;5051445;28;20055;-66
2021/08/23 02:15:36;;;;;;;11.70;4.70;;;21.60;99.90;;;;;;5051373;28;20044;-67
2021/08/23 02:18:40;;;;;;;13.85;4.60;;;21.30;99.90;;;;;;5050774;28;20645;-67
2021/08/23 02:21:53;;;;;;;7.07;4.70;;;21.10;99.90;;;;;;5051148;28;20048;-67
2021/08/23 02:24:57;;;;;;;7.18;4.40;;;21.00;99.90;;;;;;5051039;28;20064;-67
2021/08/23 02:28:01;;;;;;;10.18;4.97;;;21.00;99.90;;;;;;5048845;28;20341;-66
2021/08/23 02:31:06;;;;;;;6.35;4.57;;;21.10;99.90;;;;;;5050297;28;20044;-66
2021/08/23 02:34:10;;;;;;;11.98;5.57;;;21.20;99.90;;;;;;5050939;28;20044;-66
2021/08/23 02:37:14;;;;;;;9.95;5.10;;;21.20;99.90;;;;;;5050836;28;20044;-67
2021/08/23 02:40:18;;;;;;;9.20;5.28;;;21.10;99.90;;;;;;5050573;28;20059;-67
2021/08/23 02:43:22;;;;;;;8.02;4.97;;;21.20;99.90;;;;;;5050747;28;20051;-66
2021/08/23 02:46:27;;;;;;;14.02;5.20;;;21.20;99.90;;;;;;5050692;28;20052;-66
2021/08/23 02:49:31;;;;;;;12.45;5.25;;;21.20;99.90;;;;;;5050111;28;20044;-67
2021/08/23 02:52:36;;;;;;;13.32;5.20;;;21.20;99.90;;;;;;5050693;28;20043;-67
2021/08/23 02:55:40;;;;;;;11.57;5.38;;;21.20;99.90;;;;;;5050761;28;20384;-66
2021/08/23 02:58:44;;;;;;;9.45;5.32;;;21.20;99.90;;;;;;5050088;28;20048;-66
2021/08/23 03:01:48;;;;;;;8.75;5.47;;;21.20;99.90;;;;;;5049315;28;20040;-66
2021/08/23 03:04:52;;;;;;;10.73;5.25;;;21.30;99.90;;;;;;5050468;28;20073;-66
2021/08/23 03:07:56;;;;;;;18.25;6.05;;;21.30;99.90;;;;;;5049863;28;20052;-66
2021/08/23 03:11:08;;;;;;;10.88;6.13;;;21.30;99.90;;;;;;5050192;28;20044;-67
2021/08/23 03:14:12;;;;;;;7.68;5.50;;;21.40;99.90;;;;;;5050313;28;20048;-66
2021/08/23 03:17:17;;;;;;;9.82;5.68;;;21.40;99.90;;;;;;5050113;28;20041;-67
2021/08/23 03:20:21;;;;;;;10.55;5.43;;;21.50;99.90;;;;;;5049135;28;20060;-66
2021/08/23 03:23:25;;;;;;;13.00;6.07;;;21.70;99.90;;;;;;5050030;28;20052;-66
2021/08/23 03:26:29;;;;;;;8.32;5.30;;;21.80;99.90;;;;;;5049884;28;20044;-66
2021/08/23 03:29:33;;;;;;;7.40;5.18;;;21.80;99.90;;;;;;5049432;28;20036;-66
2021/08/23 03:32:37;;;;;;;11.80;5.20;;;21.90;99.90;;;;;;5049948;28;20399;-66
2021/08/23 03:35:42;;;;;;;10.80;5.35;;;21.40;99.90;;;;;;5050089;28;20040;-66
2021/08/23 03:38:47;;;;;;;8.55;5.15;;;21.30;99.90;;;;;;5049387;28;20064;-66
2021/08/23 03:41:51;;;;;;;8.88;4.63;;;21.20;99.90;;;;;;5049500;28;20040;-66
2021/08/23 03:44:55;;;;;;;9.75;4.82;;;21.10;99.90;;;;;;5050004;28;20114;-66
2021/08/23 03:48:00;;;;;;;8.48;5.45;;;21.00;99.90;;;;;;5049410;28;20681;-67
2021/08/23 03:51:04;;;;;;;8.57;4.63;;;20.60;99.90;;;;;;5049294;28;20044;-66
2021/08/23 03:54:08;;;;;;;16.80;5.28;;;20.40;99.90;;;;;;5049916;28;20503;-66
2021/08/23 03:57:14;;;;;;;9.30;5.25;;;20.10;99.90;;;;;;5049912;28;20036;-67
2021/08/23 04:00:19;;;;;;;8.38;5.03;;;19.70;99.90;;;;;;5049849;28;20048;-66
2021/08/23 04:03:23;;;;;;;11.63;4.78;;;19.90;99.90;;;;;;5050188;28;20048;-66
2021/08/23 04:06:27;;;;;;;10.25;5.00;;;19.90;99.90;;;;;;5049832;28;20056;-66
2021/08/23 04:09:33;;;;;;;10.45;4.88;;;20.00;99.90;;;;;;5049294;28;20120;-67
2021/08/23 04:12:37;;;;;;;11.15;4.65;;;20.20;99.90;;;;;;5049393;28;20067;-66
2021/08/23 04:15:48;;;;;;;9.75;5.60;;;20.30;99.90;;;;;;5049553;28;20056;-67
2021/08/23 04:18:52;;;;;;;9.70;5.38;;;20.40;99.90;;;;;;5049204;28;20044;-66
2021/08/23 04:21:56;;;;;;;9.30;5.18;;;20.40;99.90;;;;;;5049474;28;20491;-66
2021/08/23 04:25:00;;;;;;;11.98;5.20;;;20.40;99.90;;;;;;5049731;28;20060;-67
2021/08/23 04:28:04;;;;;;;12.63;5.55;;;20.60;99.90;;;;;;5049376;28;20048;-67
2021/08/23 04:31:09;;;;;;;10.07;5.30;;;20.70;99.90;;;;;;5048149;28;20048;-67
2021/08/23 04:34:14;;;;;;;12.15;5.30;;;20.80;99.90;;;;;;5049715;28;20044;-67
2021/08/23 04:37:18;;;;;;;9.85;5.28;;;20.80;99.90;;;;;;5049763;28;20044;-66
2021/08/23 04:40:24;;;;;;;7.63;4.90;;;20.80;99.90;;;;;;5049493;28;20048;-66
2021/08/23 04:43:28;;;;;;;9.65;4.68;;;20.60;99.90;;;;;;5049674;28;20056;-66
2021/08/23 04:46:32;;;;;;;15.45;5.65;;;20.10;99.90;;;;;;5048338;28;20052;-66
2021/08/23 04:49:37;;;;;;;11.57;5.55;;;20.10;99.90;;;;;;5049124;28;20044;-66
2021/08/23 04:52:45;;;;;;;12.75;5.03;;;19.90;99.90;;;;;;5049174;28;20048;-66
2021/08/23 04:55:49;;;;;;;9.88;5.10;;;19.90;99.90;;;;;;5049155;28;20041;-66
2021/08/23 04:58:54;;;;;;;7.60;5.22;;;19.80;99.90;;;;;;5049324;28;20049;-66
2021/08/23 05:01:58;;;;;;;12.77;5.32;;;19.60;99.90;;;;;;5048882;28;20048;-66
2021/08/23 05:05:02;;;;;;;10.93;5.40;;;19.60;99.90;;;;;;5049303;28;20565;-66
2021/08/23 05:08:06;;;;;;;10.55;5.95;;;19.80;99.90;;;;;;5050943;28;20048;-67
2021/08/23 05:11:11;;;;;;;10.73;5.32;;;20.00;99.90;;;;;;5052518;28;20388;-66
2021/08/23 05:14:15;;;;;;;9.07;5.00;;;20.20;99.90;;;;;;5053002;28;20051;-67
2021/08/23 05:17:19;;;;;;;9.75;4.90;;;20.30;99.90;;;;;;5052633;28;20056;-66
2021/08/23 05:20:23;;;;;;;10.77;5.68;;;20.40;99.90;;;;;;5052461;28;20048;-66
2021/08/23 05:23:26;;;;;;;11.35;5.03;;;20.40;99.90;;;;;;5052569;28;20067;-66
2021/08/23 05:26:31;;;;;;;17.08;5.53;;;20.50;99.90;;;;;;5052488;28;20036;-66
2021/08/23 05:29:35;;;;;;;12.45;5.53;;;20.40;99.90;;;;;;5052362;28;20052;-67
2021/08/23 05:32:39;;;;;;;15.57;5.55;;;20.40;99.90;;;;;;5051206;28;20047;-67
2021/08/23 05:35:43;;;;;;;8.45;5.25;;;20.50;99.90;;;;;;5052355;28;20048;-66
2021/08/23 05:38:47;;;;;;;8.75;5.38;;;20.30;99.90;;;;;;5051668;28;20048;-66
2021/08/23 05:41:51;;;;;;;8.85;5.05;;;20.20;99.90;;;;;;5051803;28;20048;-66
2021/08/23 05:44:56;;;;;;;10.00;5.03;;;20.30;99.90;;;;;;5052040;28;20043;-66
2021/08/23 05:47:59;;;;;;;8.80;5.82;;;20.50;99.90;;;;;;5051773;28;20056;-67
2021/08/23 05:51:03;;;;;;;8.45;5.03;;;20.60;99.90;;;;;;5051849;28;20044;-67
2021/08/23 05:54:09;;;;;;;8.88;5.35;;;20.80;99.90;;;;;;5051672;28;20040;-66
2021/08/23 05:57:13;;;;;;;15.88;5.72;;;21.00;99.90;;;;;;5051939;28;20044;-66
2021/08/23 06:00:19;;;;;;;8.25;5.38;;;21.00;99.90;;;;;;5050849;28;20040;-67
2021/08/23 06:03:23;;;;;;;11.43;5.47;;;21.00;99.90;;;;;;5051705;28;20040;-67
2021/08/23 06:06:27;;;;;;;11.13;6.10;;;21.00;99.90;;;;;;5051914;28;20056;-66
2021/08/23 06:09:31;;;;;;;11.30;5.45;;;21.00;99.90;;;;;;5051370;28;20048;-67
2021/08/23 06:12:34;;;;;;;13.40;5.40;;;20.90;99.90;;;;;;5051184;28;20048;-67
2021/08/23 06:15:39;;;;;;;10.30;5.38;;;21.00;99.90;;;;;;5050886;28;20036;-66
2021/08/23 06:18:43;;;;;;;12.05;5.68;;;21.10;99.90;;;;;;5050376;28;20431;-67
2021/08/23 06:21:46;;;;;;;13.43;5.45;;;21.00;99.90;;;;;;5051437;28;20498;-66
2021/08/23 06:24:52;;;;;;;11.57;5.20;;;21.20;99.90;;;;;;5051665;28;20040;-66
2021/08/23 06:27:56;;;;;;;11.43;5.70;;;21.20;99.90;;;;;;5051099;28;20052;-67
2021/08/23 06:31:03;;;;;;;11.02;5.40;;;21.40;99.90;;;;;;5051236;28;20056;-66
2021/08/23 06:34:07;;;;;;;17.50;6.90;;;21.60;99.90;;;;;;5051070;28;20499;-66
2021/08/23 06:37:12;;;;;;;12.27;5.40;;;21.80;99.90;;;;;;5051335;28;20044;-66
2021/08/23 06:40:16;;;;;;;11.95;5.93;;;22.00;99.90;;;;;;5051349;28;20056;-67
2021/08/23 06:43:20;;;;;;;15.65;5.93;;;22.00;99.90;;;;;;5050892;28;20068;-66
2021/08/23 06:46:25;;;;;;;12.68;5.60;;;22.60;99.90;;;;;;5051460;28;20052;-66
2021/08/23 06:49:29;;;;;;;14.07;5.30;;;23.10;99.90;;;;;;5048133;28;20048;-66
2021/08/23 06:52:33;;;;;;;18.38;5.40;;;23.00;99.90;;;;;;5043645;28;20044;-66
2021/08/23 06:55:38;;;;;;;12.98;5.43;;;23.30;99.90;;;;;;5035362;28;20056;-66
2021/08/23 06:58:42;;;;;;;26.85;6.90;;;23.60;99.90;;;;;;5050454;28;20044;-66
2021/08/23 07:01:46;;;;;;;10.82;5.13;;;23.90;99.90;;;;;;5050646;28;20414;-67
2021/08/23 07:04:50;;;;;;;11.65;5.40;;;24.10;99.90;;;;;;5050504;28;20507;-67
2021/08/23 07:07:55;;;;;;;10.05;4.95;;;24.80;99.90;;;;;;5050473;28;20055;-67
2021/08/23 07:11:01;;;;;;;7.45;4.55;;;27.00;99.90;;;;;;5050394;28;20503;-67
2021/08/23 07:14:05;;;;;;;10.02;5.65;;;28.50;97.10;;;;;;5050397;28;20040;-67
2021/08/23 07:17:10;;;;;;;11.48;4.80;;;28.30;95.30;;;;;;5050824;28;20040;-67
2021/08/23 07:20:15;;;;;;;13.57;5.22;;;29.20;94.80;;;;;;5050142;28;20511;-67
2021/08/23 07:23:20;;;;;;;11.98;5.10;;;29.90;93.20;;;;;;5050198;28;20048;-67
2021/08/23 07:26:25;;;;;;;14.68;5.53;;;28.50;94.30;;;;;;5050126;28;20036;-67
2021/08/23 07:29:31;;;;;;;12.82;5.60;;;30.70;92.00;;;;;;5049110;28;20032;-68
2021/08/23 07:32:36;;;;;;;10.30;4.53;;;31.60;90.60;;;;;;5049941;28;20053;-68
2021/08/23 07:35:41;;;;;;;10.45;5.22;;;32.10;88.20;;;;;;5050159;28;20514;-67
2021/08/23 07:38:45;;;;;;;14.63;6.07;;;30.90;89.50;;;;;;5049506;28;20052;-68
2021/08/23 07:41:50;;;;;;;12.40;5.28;;;28.30;91.70;;;;;;5049881;28;20040;-67
2021/08/23 07:44:55;;;;;;;13.13;5.47;;;28.00;93.20;;;;;;5049925;28;20246;-67
2021/08/23 07:47:59;;;;;;;9.85;5.18;;;29.70;91.70;;;;;;5049745;28;20593;-68
2021/08/23 07:51:03;;;;;;;12.27;5.57;;;30.70;89.70;;;;;;5049490;28;20050;-67
2021/08/23 07:54:08;;;;;;;10.48;4.88;;;30.90;87.50;;;;;;5049904;28;20478;-67
2021/08/23 07:57:12;;;;;;;12.48;5.55;;;31.10;89.30;;;;;;5049992;28;20048;-67
2021/08/23 08:00:19;;;;;;;12.85;4.78;;;30.80;87.00;;;;;;5049888;28;20037;-67
2021/08/23 08:03:25;;;;;;;9.50;5.00;;;29.70;90.10;;;;;;5048796;28;20056;-68
2021/08/23 08:06:31;;;;;;;8.23;4.90;;;31.40;89.50;;;;;;5049772;28;20040;-67
2021/08/23 08:09:40;;;;;;;9.05;4.38;;;31.40;87.90;;;;;;5049277;28;20044;-68
2021/08/23 08:12:44;;;;;;;13.52;5.38;;;33.80;83.20;;;;;;5049433;28;20054;-68
2021/08/23 08:15:48;;;;;;;12.68;4.93;;;32.20;84.50;;;;;;5048535;28;20048;-68
2021/08/23 08:18:54;;;;;;;9.23;4.80;;;33.70;82.80;;;;;;5049207;28;20036;-67
2021/08/23 08:22:04;;;;;;;10.70;5.00;;;32.40;81.30;;;;;;5049376;28;20055;-68
2021/08/23 08:25:09;;;;;;;8.68;4.88;;;30.70;85.90;;;;;;5049307;28;20487;-67
2021/08/23 08:28:13;;;;;;;10.35;4.93;;;33.00;83.40;;;;;;5049178;28;20044;-67
2021/08/23 08:31:18;;;;;;;8.65;3.90;;;32.60;83.90;;;;;;5049142;28;20040;-68
2021/08/23 08:34:22;;;;;;;6.93;3.83;;;32.10;85.30;;;;;;5049128;28;20403;-67
2021/08/23 08:37:27;;;;;;;10.32;4.20;;;34.90;80.80;;;;;;5049612;28;20392;-67
2021/08/23 08:40:31;;;;;;;8.52;4.45;;;36.90;76.70;;;;;;5049424;28;20048;-68
2021/08/23 08:43:37;;;;;;;9.90;4.72;;;37.50;73.90;;;;;;5052185;28;20055;-68
2021/08/23 08:46:42;;;;;;;6.95;3.90;;;38.40;71.80;;;;;;5052955;28;20063;-68
2021/08/23 08:49:47;;;;;;;11.57;4.20;;;35.80;74.10;;;;;;5052617;28;20072;-67
2021/08/23 08:52:51;;;;;;;13.90;4.20;;;35.20;75.20;;;;;;5052730;28;20435;-68
2021/08/23 08:55:55;;;;;;;7.63;4.30;;;35.60;74.60;;;;;;5052396;28;20270;-68
2021/08/23 08:59:00;;;;;;;10.10;4.57;;;34.90;77.70;;;;;;5052569;28;20415;-68
2021/08/23 09:02:05;;;;;;;9.50;4.10;;;35.40;75.50;;;;;;5032636;28;20495;-68
2021/08/23 09:05:16;;;;;;;10.13;4.10;;;35.80;74.60;;;;;;5032654;28;20052;-68
2021/08/23 09:08:28;;;;;;;10.68;4.30;;;35.30;74.70;;;;;;5032330;28;20052;-68
2021/08/23 09:11:32;;;;;;;10.07;4.35;;;37.40;71.80;;;;;;5032263;28;20412;-68
2021/08/23 09:14:48;;;;;;;8.25;4.55;;;38.90;69.80;;;;;;5032575;28;20052;-68
2021/08/23 09:18:04;;;;;;;5.93;3.97;;;35.00;73.80;;;;;;5032645;28;20373;-68
2021/08/23 09:21:10;;;;;;;8.13;4.20;;;36.20;72.20;;;;;;5032497;28;20056;-68
2021/08/23 09:24:21;;;;;;;6.78;4.40;;;37.00;71.40;;;;;;5032695;28;20048;-68
2021/08/23 09:27:32;;;;;;;7.78;3.97;;;37.90;68.60;;;;;;5033039;28;20499;-68
2021/08/23 09:30:37;;;;;;;9.05;4.55;;;38.10;68.20;;;;;;5031745;28;20037;-68
2021/08/23 09:33:45;;;;;;;10.02;4.10;;;39.30;67.00;;;;;;5032756;28;20399;-67
2021/08/23 09:36:57;;;;;;;11.50;4.20;;;36.40;68.70;;;;;;5032310;28;20527;-68
2021/08/23 09:40:10;;;;;;;11.73;4.35;;;37.80;68.70;;;;;;5032286;28;20044;-67
2021/08/23 09:43:16;;;;;;;8.05;3.97;;;36.00;71.60;;;;;;5032476;28;20513;-68
2021/08/23 09:46:22;;;;;;;7.40;3.70;;;39.00;68.50;;;;;;5051315;28;20039;-67
2021/08/23 09:49:37;;;;;;;5.95;3.70;;;37.30;67.60;;;;;;5051933;28;20040;-68
2021/08/23 09:52:41;;;;;;;7.45;3.88;;;39.90;65.80;;;;;;5051002;28;20494;-68
2021/08/23 09:55:48;;;;;;;7.97;4.10;;;39.90;65.50;;;;;;5051547;28;20387;-69
2021/08/23 09:58:52;;;;;;;8.50;3.88;;;40.70;64.00;;;;;;5051389;28;20052;-68
2021/08/23 10:02:00;;;;;;;6.57;4.13;;;40.20;64.20;;;;;;5051493;28;20044;-67
2021/08/23 10:05:05;;;;;;;5.95;3.60;;;37.30;66.50;;;;;;5051772;28;20067;-67
2021/08/23 10:08:12;;;;;;;6.93;4.00;;;40.10;65.10;;;;;;5051347;28;20388;-68
2021/08/23 10:11:17;;;;;;;6.47;3.58;;;41.00;63.10;;;;;;5051680;28;20499;-67
2021/08/23 10:14:22;;;;;;;8.88;3.63;;;42.30;60.90;;;;;;5051860;28;20490;-67
2021/08/23 10:17:36;;;;;;;7.10;3.83;;;40.20;63.20;;;;;;5050733;28;20044;-67
2021/08/23 10:20:42;;;;;;;9.07;3.72;;;37.60;65.20;;;;;;5031591;28;20044;-68
2021/08/23 10:23:48;;;;;;;5.90;3.65;;;39.40;63.30;;;;;;5031368;28;20064;-68
2021/08/23 10:26:53;;;;;;;7.30;3.95;;;40.20;62.80;;;;;;5031253;28;20582;-67
2021/08/23 10:29:58;;;;;;;8.93;3.63;;;42.10;60.10;;;;;;5031134;28;20041;-67
2021/08/23 10:33:18;;;;;;;7.43;3.83;;;38.00;62.90;;;;;;5031473;28;20048;-68
2021/08/23 10:36:33;;;;;;;6.10;3.73;;;36.10;66.00;;;;;;5031313;28;20044;-68
2021/08/23 10:39:37;;;;;;;7.38;3.80;;;37.60;66.00;;;;;;5030091;28;20108;-68
2021/08/23 10:42:46;;;;;;;8.95;4.30;;;40.50;61.90;;;;;;5031046;28;20052;-68
2021/08/23 10:45:50;;;;;;;7.47;3.63;;;42.30;60.40;;;;;;5030140;28;20056;-68
2021/08/23 10:48:59;;;;;;;8.32;3.85;;;42.90;58.90;;;;;;5029802;28;20040;-68
2021/08/23 10:52:03;;;;;;;7.47;3.65;;;36.80;63.60;;;;;;5034509;28;20056;-68
2021/08/23 10:55:20;;;;;;;9.13;3.80;;;36.90;65.10;;;;;;5050502;28;20131;-67
2021/08/23 10:58:29;;;;;;;8.80;4.75;;;37.60;63.10;;;;;;5050361;28;20048;-67
2021/08/23 11:01:34;;;;;;;8.77;4.03;;;35.50;66.10;;;;;;5050672;28;20040;-67
2021/08/23 11:04:42;;;;;;;5.82;4.13;;;37.70;63.80;;;;;;5050826;28;20040;-67
2021/08/23 11:07:48;;;;;;;6.53;3.45;;;40.20;61.50;;;;;;5050090;28;20407;-67
2021/08/23 11:10:52;;;;;;;8.35;4.15;;;42.80;58.20;;;;;;5049821;28;20048;-67
2021/08/23 11:13:57;;;;;;;6.00;4.30;;;38.10;59.80;;;;;;5049526;28;20036;-67
2021/08/23 11:17:01;;;;;;;7.47;4.15;;;39.40;61.10;;;;;;5049504;28;20514;-67
2021/08/23 11:20:08;;;;;;;6.18;4.07;;;38.20;61.70;;;;;;5050026;28;20392;-68
2021/08/23 11:23:20;;;;;;;5.35;3.92;;;41.80;60.00;;;;;;5050002;28;20116;-68
2021/08/23 11:26:25;;;;;;;4.82;3.80;;;41.80;59.10;;;;;;5050187;28;20052;-68
2021/08/23 11:29:33;;;;;;;6.45;3.90;;;39.50;59.30;;;;;;5038983;28;20487;-67
2021/08/23 11:32:37;;;;;;;6.88;3.63;;;40.00;59.40;;;;;;5037234;28;20534;-68
2021/08/23 11:35:46;;;;;;;6.70;4.43;;;38.40;60.50;;;;;;5041307;28;20032;-67
2021/08/23 11:38:52;;;;;;;6.82;4.78;;;34.80;65.40;;;;;;5048881;28;20136;-68
2021/08/23 11:42:04;;;;;;;9.45;4.57;;;36.50;64.10;;;;;;5050127;28;20494;-67
2021/08/23 11:45:10;;;;;;;8.30;4.35;;;39.30;60.20;;;;;;5049303;28;20044;-68
2021/08/23 11:48:14;;;;;;;12.35;5.20;;;41.40;58.40;;;;;;5026006;28;20052;-67
2021/08/23 11:51:31;;;;;;;7.45;3.47;;;40.20;56.90;;;;;;5049844;28;20052;-67
2021/08/23 11:54:39;;;;;;;8.15;3.97;;;40.70;58.30;;;;;;5049649;28;20040;-68
2021/08/23 11:57:54;;;;;;;5.75;3.65;;;39.70;57.70;;;;;;5049957;28;20094;-67
2021/08/23 12:01:04;;;;;;;6.47;4.50;;;41.70;57.40;;;;;;5049732;28;20515;-68
2021/08/23 12:04:09;;;;;;;7.03;4.05;;;42.20;56.70;;;;;;5049725;28;20036;-68
2021/08/23 12:07:14;;;;;;;5.85;4.18;;;41.50;54.90;;;;;;5049787;28;20044;-68
2021/08/23 12:10:30;;;;;;;6.32;4.50;;;39.70;56.90;;;;;;5049782;28;20400;-67
2021/08/23 12:13:43;;;;;;;7.28;4.45;;;37.10;59.60;;;;;;5049903;28;20040;-68
2021/08/23 12:16:48;;;;;;;5.90;4.05;;;37.40;60.40;;;;;;5051888;28;20499;-67
2021/08/23 12:20:03;;;;;;;6.40;4.70;;;38.30;58.50;;;;;;5052884;28;20048;-68
2021/08/23 12:23:09;;;;;;;7.38;4.80;;;40.10;57.50;;;;;;5054008;28;20044;-68
2021/08/23 12:26:14;;;;;;;5.93;4.00;;;41.40;56.10;;;;;;5053929;28;20044;-67
2021/08/23 12:29:29;;;;;;;4.97;4.20;;;39.10;57.90;;;;;;5053199;28;20408;-66
2021/08/23 12:32:35;;;;;;;7.22;4.90;;;38.00;58.70;;;;;;5053465;28;20040;-68
2021/08/23 12:35:39;;;;;;;7.53;4.75;;;37.90;58.50;;;;;;5052432;28;20499;-67
2021/08/23 12:38:46;;;;;;;7.60;4.68;;;36.90;60.20;;;;;;5053121;28;20040;-68
2021/08/23 12:41:53;;;;;;;5.72;4.93;;;37.20;59.70;;;;;;5053221;28;20052;-67
2021/08/23 12:44:57;;;;;;;7.10;4.65;;;39.40;57.40;;;;;;5052359;28;20040;-67
2021/08/23 12:48:01;;;;;;;7.53;4.88;;;38.90;57.10;;;;;;5052693;28;20056;-68
2021/08/23 12:51:07;;;;;;;6.50;4.63;;;36.30;59.60;;;;;;5051765;28;20048;-68
2021/08/23 12:54:13;;;;;;;7.50;5.07;;;37.90;58.50;;;;;;5043756;28;20052;-68
2021/08/23 12:57:17;;;;;;;11.15;4.80;;;35.30;61.30;;;;;;5051452;28;20052;-67
2021/08/23 13:00:22;;;;;;;4.85;4.13;;;37.40;60.00;;;;;;5037996;28;20040;-68
2021/08/23 13:03:27;;;;;;;6.10;4.20;;;38.60;58.80;;;;;;5051722;28;20044;-67
2021/08/23 13:06:33;;;;;;;6.75;4.53;;;39.30;58.00;;;;;;5051834;28;20052;-67
2021/08/23 13:09:37;;;;;;;5.10;4.60;;;38.50;58.30;;;;;;5052612;28;20052;-67
2021/08/23 13:12:43;;;;;;;8.43;5.35;;;37.60;59.50;;;;;;5052840;28;20514;-67
2021/08/23 13:15:47;;;;;;;5.35;4.43;;;38.70;58.80;;;;;;5052259;28;20053;-67
2021/08/23 13:18:51;;;;;;;9.73;5.28;;;39.50;58.00;;;;;;5052258;28;20043;-68
2021/08/23 13:21:57;;;;;;;7.18;4.93;;;38.40;57.70;;;;;;5052818;28;20048;-67
2021/08/23 13:25:02;;;;;;;8.32;5.00;;;38.90;57.90;;;;;;5052481;28;20395;-67
2021/08/23 13:28:07;;;;;;;4.93;4.43;;;37.50;58.00;;;;;;5051430;28;20467;-67
2021/08/23 13:31:13;;;;;;;6.68;4.40;;;39.40;57.60;;;;;;5052228;28;20044;-67
2021/08/23 13:34:17;;;;;;;13.05;5.65;;;40.10;56.30;;;;;;5051809;28;20052;-67
2021/08/23 13:37:22;;;;;;;6.50;4.75;;;40.60;55.70;;;;;;5052196;28;20111;-67
2021/08/23 13:40:27;;;;;;;6.90;4.68;;;40.10;55.90;;;;;;5052366;28;20095;-67
2021/08/23 13:43:31;;;;;;;7.47;5.07;;;39.30;56.80;;;;;;5052332;28;20048;-67
2021/08/23 13:46:35;;;;;;;7.50;5.07;;;39.50;57.00;;;;;;5052202;28;20048;-67
2021/08/23 13:49:40;;;;;;;5.57;4.95;;;40.10;55.80;;;;;;5051462;28;20056;-66
2021/08/23 13:52:46;;;;;;;5.75;4.78;;;40.30;56.20;;;;;;5051941;28;20047;-67
2021/08/23 13:55:50;;;;;;;8.00;4.85;;;39.90;56.10;;;;;;5051810;28;20056;-67
2021/08/23 13:58:57;;;;;;;6.70;4.70;;;39.30;56.60;;;;;;5051472;28;20041;-67
2021/08/23 14:02:03;;;;;;;6.47;4.93;;;38.60;57.30;;;;;;5050980;28;20510;-67
2021/08/23 14:05:08;;;;;;;24.02;6.25;;;37.90;58.00;;;;;;5051003;28;20048;-67
2021/08/23 14:08:14;;;;;;;11.27;5.90;;;37.80;58.50;;;;;;5031437;28;20586;-67
2021/08/23 14:11:20;;;;;;;7.82;5.70;;;37.30;57.40;;;;;;5031921;28;20052;-66
2021/08/23 14:14:24;;;;;;;7.07;5.28;;;37.30;57.60;;;;;;5032177;28;20388;-67
2021/08/23 14:17:29;;;;;;;9.00;5.53;;;37.60;57.80;;;;;;5031634;28;20507;-66
2021/08/23 14:20:33;;;;;;;7.78;5.15;;;37.40;57.80;;;;;;5032027;28;20052;-67
2021/08/23 14:23:38;;;;;;;9.43;5.57;;;37.20;57.90;;;;;;5031510;28;20522;-66
2021/08/23 14:26:42;;;;;;;9.82;5.43;;;37.20;57.90;;;;;;5031991;28;20063;-67
2021/08/23 14:29:47;;;;;;;21.38;6.43;;;35.80;58.10;;;;;;5031106;28;20041;-67
2021/08/23 14:32:51;;;;;;;8.88;5.05;;;35.70;59.10;;;;;;5031143;28;20045;-66
2021/08/23 14:35:56;;;;;;;7.90;5.60;;;36.20;58.20;;;;;;5031473;28;20135;-67
2021/08/23 14:39:03;;;;;;;7.25;4.68;;;36.20;57.30;;;;;;5030750;28;20044;-67
2021/08/23 14:42:09;;;;;;;6.90;5.25;;;36.10;58.20;;;;;;5031398;28;20124;-66
2021/08/23 14:45:14;;;;;;;7.05;4.80;;;36.20;57.70;;;;;;5031419;28;20045;-66
2021/08/23 14:48:19;;;;;;;10.18;5.47;;;36.50;59.20;;;;;;5029920;28;20056;-67
2021/08/23 14:51:23;;;;;;;10.88;5.22;;;36.30;59.30;;;;;;5031598;28;20044;-67
2021/08/23 14:54:29;;;;;;;10.32;5.72;;;36.20;58.60;;;;;;5031133;28;20121;-66
2021/08/23 14:57:33;;;;;;;7.18;5.30;;;36.00;57.10;;;;;;5030916;28;20041;-66
2021/08/23 15:00:38;;;;;;;14.90;5.30;;;35.70;56.30;;;;;;5029945;28;20040;-66
2021/08/23 15:03:44;;;;;;;6.55;5.00;;;35.50;58.00;;;;;;5031094;28;20491;-67
2021/08/23 15:06:49;;;;;;;5.85;4.55;;;35.40;57.50;;;;;;5044441;28;20048;-67
2021/08/23 15:09:53;;;;;;;10.98;5.20;;;35.50;58.30;;;;;;5038230;28;20379;-66
2021/08/23 15:12:59;;;;;;;7.88;5.43;;;35.30;59.00;;;;;;5050841;28;20644;-66
2021/08/23 15:16:04;;;;;;;10.48;5.60;;;35.30;59.30;;;;;;5050939;28;20052;-66
2021/08/23 15:19:10;;;;;;;9.80;5.38;;;35.20;59.60;;;;;;5049061;28;20044;-66
2021/08/23 15:22:14;;;;;;;10.73;5.45;;;34.80;59.20;;;;;;5050572;28;20048;-67
2021/08/23 15:25:19;;;;;;;6.93;4.57;;;34.60;59.40;;;;;;5050422;28;20060;-67
2021/08/23 15:28:23;;;;;;;7.45;5.25;;;34.40;59.30;;;;;;5049984;28;20534;-67
2021/08/23 15:31:27;;;;;;;11.85;5.45;;;34.30;58.90;;;;;;5050223;28;20047;-66
2021/08/23 15:34:32;;;;;;;8.70;5.65;;;34.30;58.90;;;;;;5050276;28;20048;-66
2021/08/23 15:37:36;;;;;;;7.93;5.53;;;34.20;58.50;;;;;;5050471;28;20044;-66
2021/08/23 15:40:45;;;;;;;7.85;5.30;;;34.00;58.10;;;;;;5049845;28;20044;-67
2021/08/23 15:43:49;;;;;;;6.22;3.95;;;33.90;60.20;;;;;;5049912;28;20508;-66
2021/08/23 15:46:54;;;;;;;7.10;4.07;;;33.90;64.10;;;;;;5050191;28;20451;-66
2021/08/23 15:49:58;;;;;;;5.43;3.63;;;33.80;64.90;;;;;;5048653;28;20048;-66
2021/08/23 15:53:04;;;;;;;7.88;3.75;;;33.60;66.10;;;;;;5050071;28;20044;-68
2021/08/23 15:56:09;;;;;;;5.63;3.58;;;33.60;66.40;;;;;;5049590;28;20403;-66
2021/08/23 15:59:13;;;;;;;6.03;3.83;;;33.40;66.80;;;;;;5049543;28;20036;-68
2021/08/23 16:02:17;;;;;;;12.13;4.10;;;33.20;67.10;;;;;;5050065;28;20052;-66